Decoded Metar for LZKZ (KOSICE in SLOVAKIA) (IATA:KSC) | Meteo·Mobile Aviation Weather
aviador You're here:

LZKZ Decoded Metar

KOSICE in SLOVAKIA
Report Time2019-03-23 08:30:00
UTC Time2019-03-23 08:46:51
Flight Rules vfr VFR
Wind020° at 09 kt
W.Decomp.*RWY 01: 9.0 kt HW 0.8 kt RCW
W.Rank020° ranks 2
Current wind is below 020° avg. (9.5)
Visibility9999 m
Phenomena:N/A
Clouds:N/A
Expected CloudBase > 4,400 ft AGL from Temp-Dew spread
CeilingNone
Temp12°C (ISA -1)
Dew Point01°C (47% RH)
AAT6.9°C
QNH1028 hPa
Density Alt174 ft
Elevation761 ft
Report Wrong Elevation
Raw Report
LZKZ 230830Z 02009KT 350V060 CAVOK 12/01 Q1028 NOSIG=

Extra information for LZKZ:More info

Metar Taf Metar & Taf Last 4 Metars F.Rules Stats Wind Profile Meteogram Temp Stats Airport Information Weather charts Add Link Nearby VenuesMetar ALERT Operation Metar Decoded Social comments